sensor_id;sensor_type;location;lat;lon;timestamp;P1;durP1;ratioP1;P2;durP2;ratioP2
23222;SDS011;11780;13.904;100.620;2023-03-23T00:00:47;14.18;;;9.52;;
23222;SDS011;11780;13.904;100.620;2023-03-23T00:03:19;12.75;;;9.18;;
23222;SDS011;11780;13.904;100.620;2023-03-23T00:05:50;14.50;;;8.95;;
23222;SDS011;11780;13.904;100.620;2023-03-23T00:08:21;16.88;;;9.75;;
23222;SDS011;11780;13.904;100.620;2023-03-23T00:10:52;13.98;;;7.95;;
23222;SDS011;11780;13.904;100.620;2023-03-23T00:13:27;11.90;;;8.43;;
23222;SDS011;11780;13.904;100.620;2023-03-23T00:15:58;11.27;;;8.45;;
23222;SDS011;11780;13.904;100.620;2023-03-23T00:18:30;12.00;;;8.68;;
23222;SDS011;11780;13.904;100.620;2023-03-23T00:21:00;12.68;;;8.63;;
23222;SDS011;11780;13.904;100.620;2023-03-23T00:23:33;11.43;;;8.43;;
23222;SDS011;11780;13.904;100.620;2023-03-23T00:26:03;12.27;;;8.50;;
23222;SDS011;11780;13.904;100.620;2023-03-23T00:28:34;12.27;;;7.90;;
23222;SDS011;11780;13.904;100.620;2023-03-23T00:31:05;11.77;;;8.50;;
23222;SDS011;11780;13.904;100.620;2023-03-23T00:33:37;12.70;;;8.57;;
23222;SDS011;11780;13.904;100.620;2023-03-23T00:36:10;12.30;;;8.68;;
23222;SDS011;11780;13.904;100.620;2023-03-23T00:38:43;13.77;;;8.70;;
23222;SDS011;11780;13.904;100.620;2023-03-23T00:41:14;14.00;;;8.85;;
23222;SDS011;11780;13.904;100.620;2023-03-23T00:43:44;10.30;;;8.07;;
23222;SDS011;11780;13.904;100.620;2023-03-23T00:46:15;14.32;;;8.02;;
23222;SDS011;11780;13.904;100.620;2023-03-23T00:48:45;9.00;;;7.50;;
23222;SDS011;11780;13.904;100.620;2023-03-23T00:51:17;12.77;;;8.45;;
23222;SDS011;11780;13.904;100.620;2023-03-23T00:53:48;10.82;;;7.68;;
23222;SDS011;11780;13.904;100.620;2023-03-23T00:56:19;12.45;;;8.32;;
23222;SDS011;11780;13.904;100.620;2023-03-23T00:58:49;16.85;;;8.05;;
23222;SDS011;11780;13.904;100.620;2023-03-23T01:01:20;10.25;;;7.55;;
23222;SDS011;11780;13.904;100.620;2023-03-23T01:03:50;17.23;;;8.30;;
23222;SDS011;11780;13.904;100.620;2023-03-23T01:06:22;15.75;;;7.97;;
23222;SDS011;11780;13.904;100.620;2023-03-23T01:08:52;12.93;;;7.93;;
23222;SDS011;11780;13.904;100.620;2023-03-23T01:13:54;13.35;;;8.13;;
23222;SDS011;11780;13.904;100.620;2023-03-23T01:16:25;11.27;;;8.10;;
23222;SDS011;11780;13.904;100.620;2023-03-23T01:18:56;14.60;;;8.47;;
23222;SDS011;11780;13.904;100.620;2023-03-23T01:21:26;14.38;;;8.45;;
23222;SDS011;11780;13.904;100.620;2023-03-23T01:23:58;12.60;;;8.00;;
23222;SDS011;11780;13.904;100.620;2023-03-23T01:26:29;11.90;;;9.15;;
23222;SDS011;11780;13.904;100.620;2023-03-23T01:28:59;12.60;;;8.85;;
23222;SDS011;11780;13.904;100.620;2023-03-23T01:31:30;11.73;;;8.70;;
23222;SDS011;11780;13.904;100.620;2023-03-23T01:34:01;13.60;;;9.60;;
23222;SDS011;11780;13.904;100.620;2023-03-23T01:36:31;14.02;;;8.82;;
23222;SDS011;11780;13.904;100.620;2023-03-23T01:39:03;10.95;;;8.98;;
23222;SDS011;11780;13.904;100.620;2023-03-23T01:41:34;12.65;;;9.30;;
23222;SDS011;11780;13.904;100.620;2023-03-23T01:47:12;14.57;;;9.85;;
23222;SDS011;11780;13.904;100.620;2023-03-23T01:49:43;13.38;;;9.15;;
23222;SDS011;11780;13.904;100.620;2023-03-23T01:52:20;11.70;;;9.68;;
23222;SDS011;11780;13.904;100.620;2023-03-23T01:55:01;13.55;;;9.75;;
23222;SDS011;11780;13.904;100.620;2023-03-23T01:57:32;15.13;;;10.05;;
23222;SDS011;11780;13.904;100.620;2023-03-23T02:00:06;15.00;;;9.82;;
23222;SDS011;11780;13.904;100.620;2023-03-23T02:02:49;15.32;;;11.00;;
23222;SDS011;11780;13.904;100.620;2023-03-23T02:05:32;14.43;;;10.68;;
23222;SDS011;11780;13.904;100.620;2023-03-23T02:08:16;13.75;;;12.15;;
23222;SDS011;11780;13.904;100.620;2023-03-23T02:10:48;11.80;;;9.65;;
23222;SDS011;11780;13.904;100.620;2023-03-23T02:13:19;13.80;;;10.53;;
23222;SDS011;11780;13.904;100.620;2023-03-23T02:32:30;16.85;;;11.98;;
23222;SDS011;11780;13.904;100.620;2023-03-23T02:35:28;13.50;;;11.25;;
23222;SDS011;11780;13.904;100.620;2023-03-23T02:38:08;17.55;;;12.75;;
23222;SDS011;11780;13.904;100.620;2023-03-23T02:40:48;13.65;;;11.75;;
23222;SDS011;11780;13.904;100.620;2023-03-23T02:43:21;13.48;;;12.15;;
23222;SDS011;11780;13.904;100.620;2023-03-23T02:46:01;15.38;;;12.15;;
23222;SDS011;11780;13.904;100.620;2023-03-23T02:48:36;13.35;;;12.05;;
23222;SDS011;11780;13.904;100.620;2023-03-23T02:51:09;14.02;;;12.52;;
23222;SDS011;11780;13.904;100.620;2023-03-23T02:53:56;16.75;;;13.35;;
23222;SDS011;11780;13.904;100.620;2023-03-23T03:04:13;16.63;;;12.68;;
23222;SDS011;11780;13.904;100.620;2023-03-23T03:09:55;15.63;;;13.52;;
23222;SDS011;11780;13.904;100.620;2023-03-23T03:18:21;19.48;;;14.63;;
23222;SDS011;11780;13.904;100.620;2023-03-23T03:21:15;15.88;;;14.27;;
23222;SDS011;11780;13.904;100.620;2023-03-23T03:24:07;15.77;;;14.15;;
23222;SDS011;11780;13.904;100.620;2023-03-23T03:26:42;15.32;;;13.85;;
23222;SDS011;11780;13.904;100.620;2023-03-23T03:29:32;14.77;;;13.27;;
23222;SDS011;11780;13.904;100.620;2023-03-23T03:32:22;15.75;;;13.93;;
23222;SDS011;11780;13.904;100.620;2023-03-23T03:35:01;16.38;;;14.55;;
23222;SDS011;11780;13.904;100.620;2023-03-23T03:37:33;17.10;;;14.60;;
23222;SDS011;11780;13.904;100.620;2023-03-23T03:40:09;16.27;;;14.57;;
23222;SDS011;11780;13.904;100.620;2023-03-23T03:43:00;15.93;;;13.50;;
23222;SDS011;11780;13.904;100.620;2023-03-23T03:45:31;18.65;;;14.48;;
23222;SDS011;11780;13.904;100.620;2023-03-23T03:48:19;19.92;;;14.52;;
23222;SDS011;11780;13.904;100.620;2023-03-23T03:51:05;17.63;;;15.35;;
23222;SDS011;11780;13.904;100.620;2023-03-23T03:53:40;17.00;;;14.52;;
23222;SDS011;11780;13.904;100.620;2023-03-23T03:56:28;16.23;;;14.57;;
23222;SDS011;11780;13.904;100.620;2023-03-23T03:59:19;18.15;;;14.98;;
23222;SDS011;11780;13.904;100.620;2023-03-23T04:02:10;15.70;;;14.07;;
23222;SDS011;11780;13.904;100.620;2023-03-23T04:05:00;15.77;;;14.05;;
23222;SDS011;11780;13.904;100.620;2023-03-23T04:07:32;16.33;;;14.57;;
23222;SDS011;11780;13.904;100.620;2023-03-23T04:10:20;17.27;;;15.50;;
23222;SDS011;11780;13.904;100.620;2023-03-23T04:13:17;16.70;;;14.60;;
23222;SDS011;11780;13.904;100.620;2023-03-23T04:16:07;17.40;;;15.70;;
23222;SDS011;11780;13.904;100.620;2023-03-23T04:21:47;16.90;;;14.50;;
23222;SDS011;11780;13.904;100.620;2023-03-23T04:24:18;17.67;;;14.93;;
23222;SDS011;11780;13.904;100.620;2023-03-23T04:27:16;20.08;;;15.77;;
23222;SDS011;11780;13.904;100.620;2023-03-23T04:29:47;16.92;;;15.23;;
23222;SDS011;11780;13.904;100.620;2023-03-23T04:32:39;18.25;;;16.25;;
23222;SDS011;11780;13.904;100.620;2023-03-23T04:35:30;15.10;;;13.57;;
23222;SDS011;11780;13.904;100.620;2023-03-23T04:38:15;17.48;;;15.40;;
23222;SDS011;11780;13.904;100.620;2023-03-23T04:41:07;17.67;;;15.77;;
23222;SDS011;11780;13.904;100.620;2023-03-23T04:43:44;17.90;;;15.57;;
23222;SDS011;11780;13.904;100.620;2023-03-23T04:46:37;17.98;;;16.15;;
23222;SDS011;11780;13.904;100.620;2023-03-23T04:49:10;18.02;;;15.15;;
23222;SDS011;11780;13.904;100.620;2023-03-23T04:52:05;20.00;;;16.08;;
23222;SDS011;11780;13.904;100.620;2023-03-23T04:54:42;17.50;;;15.40;;
23222;SDS011;11780;13.904;100.620;2023-03-23T04:57:14;18.08;;;15.25;;
23222;SDS011;11780;13.904;100.620;2023-03-23T05:00:05;17.67;;;15.47;;
23222;SDS011;11780;13.904;100.620;2023-03-23T05:03:00;19.60;;;16.00;;
23222;SDS011;11780;13.904;100.620;2023-03-23T05:05:32;17.40;;;15.60;;
23222;SDS011;11780;13.904;100.620;2023-03-23T05:08:22;17.38;;;15.25;;
23222;SDS011;11780;13.904;100.620;2023-03-23T05:11:14;17.33;;;15.57;;
23222;SDS011;11780;13.904;100.620;2023-03-23T05:13:45;16.98;;;15.20;;
23222;SDS011;11780;13.904;100.620;2023-03-23T05:16:33;16.85;;;15.02;;
23222;SDS011;11780;13.904;100.620;2023-03-23T05:19:07;17.40;;;15.15;;
23222;SDS011;11780;13.904;100.620;2023-03-23T05:21:44;17.58;;;15.07;;
23222;SDS011;11780;13.904;100.620;2023-03-23T05:24:15;17.57;;;15.80;;
23222;SDS011;11780;13.904;100.620;2023-03-23T05:27:04;20.80;;;15.73;;
23222;SDS011;11780;13.904;100.620;2023-03-23T05:29:42;17.30;;;15.43;;
23222;SDS011;11780;13.904;100.620;2023-03-23T05:32:13;17.77;;;16.00;;
23222;SDS011;11780;13.904;100.620;2023-03-23T05:34:44;17.75;;;15.70;;
23222;SDS011;11780;13.904;100.620;2023-03-23T05:39:49;16.67;;;15.07;;
23222;SDS011;11780;13.904;100.620;2023-03-23T05:42:42;18.55;;;16.42;;
23222;SDS011;11780;13.904;100.620;2023-03-23T05:45:33;20.20;;;16.30;;
23222;SDS011;11780;13.904;100.620;2023-03-23T05:48:04;22.92;;;17.15;;
23222;SDS011;11780;13.904;100.620;2023-03-23T05:50:35;19.80;;;16.73;;
23222;SDS011;11780;13.904;100.620;2023-03-23T05:53:06;17.33;;;15.53;;
23222;SDS011;11780;13.904;100.620;2023-03-23T05:55:39;18.83;;;16.73;;
23222;SDS011;11780;13.904;100.620;2023-03-23T05:58:20;18.70;;;16.08;;
23222;SDS011;11780;13.904;100.620;2023-03-23T06:00:52;18.55;;;16.58;;
23222;SDS011;11780;13.904;100.620;2023-03-23T06:03:27;18.90;;;16.27;;
23222;SDS011;11780;13.904;100.620;2023-03-23T06:06:04;19.80;;;17.77;;
23222;SDS011;11780;13.904;100.620;2023-03-23T06:08:46;17.52;;;15.82;;
23222;SDS011;11780;13.904;100.620;2023-03-23T06:11:32;18.08;;;16.02;;
23222;SDS011;11780;13.904;100.620;2023-03-23T06:14:22;17.87;;;16.07;;
23222;SDS011;11780;13.904;100.620;2023-03-23T06:16:53;20.17;;;17.75;;
23222;SDS011;11780;13.904;100.620;2023-03-23T06:19:24;19.33;;;16.65;;
23222;SDS011;11780;13.904;100.620;2023-03-23T06:22:14;17.23;;;15.52;;
23222;SDS011;11780;13.904;100.620;2023-03-23T06:25:05;19.77;;;16.88;;
23222;SDS011;11780;13.904;100.620;2023-03-23T06:27:40;18.30;;;16.40;;
23222;SDS011;11780;13.904;100.620;2023-03-23T06:30:12;18.98;;;17.08;;
23222;SDS011;11780;13.904;100.620;2023-03-23T06:32:44;21.40;;;16.42;;
23222;SDS011;11780;13.904;100.620;2023-03-23T06:35:28;18.30;;;15.60;;
23222;SDS011;11780;13.904;100.620;2023-03-23T06:38:16;21.33;;;16.65;;
23222;SDS011;11780;13.904;100.620;2023-03-23T06:40:53;19.48;;;17.25;;
23222;SDS011;11780;13.904;100.620;2023-03-23T06:43:30;19.45;;;16.95;;
23222;SDS011;11780;13.904;100.620;2023-03-23T06:46:24;18.50;;;16.65;;
23222;SDS011;11780;13.904;100.620;2023-03-23T06:49:29;18.40;;;16.35;;
23222;SDS011;11780;13.904;100.620;2023-03-23T06:52:24;18.88;;;16.83;;
23222;SDS011;11780;13.904;100.620;2023-03-23T06:55:29;19.77;;;16.83;;
23222;SDS011;11780;13.904;100.620;2023-03-23T06:58:17;19.10;;;16.42;;
23222;SDS011;11780;13.904;100.620;2023-03-23T07:00:53;18.90;;;16.50;;
23222;SDS011;11780;13.904;100.620;2023-03-23T07:03:33;19.63;;;17.77;;
23222;SDS011;11780;13.904;100.620;2023-03-23T07:06:28;18.42;;;16.42;;
23222;SDS011;11780;13.904;100.620;2023-03-23T07:09:13;19.52;;;17.27;;
23222;SDS011;11780;13.904;100.620;2023-03-23T07:11:44;19.30;;;16.70;;
23222;SDS011;11780;13.904;100.620;2023-03-23T07:14:26;17.83;;;15.93;;
23222;SDS011;11780;13.904;100.620;2023-03-23T07:17:11;19.23;;;17.33;;
23222;SDS011;11780;13.904;100.620;2023-03-23T07:20:02;20.30;;;17.02;;
23222;SDS011;11780;13.904;100.620;2023-03-23T07:22:34;19.92;;;17.27;;
23222;SDS011;11780;13.904;100.620;2023-03-23T07:25:23;18.52;;;16.73;;
23222;SDS011;11780;13.904;100.620;2023-03-23T07:28:13;18.73;;;16.83;;
23222;SDS011;11780;13.904;100.620;2023-03-23T07:31:01;18.13;;;16.20;;
23222;SDS011;11780;13.904;100.620;2023-03-23T07:33:32;19.73;;;17.10;;
23222;SDS011;11780;13.904;100.620;2023-03-23T07:36:21;20.40;;;17.25;;
23222;SDS011;11780;13.904;100.620;2023-03-23T07:39:09;21.20;;;16.90;;
23222;SDS011;11780;13.904;100.620;2023-03-23T07:41:57;18.48;;;16.48;;
23222;SDS011;11780;13.904;100.620;2023-03-23T07:44:39;18.58;;;16.77;;
23222;SDS011;11780;13.904;100.620;2023-03-23T07:47:13;20.25;;;17.38;;
23222;SDS011;11780;13.904;100.620;2023-03-23T07:49:46;19.60;;;17.77;;
23222;SDS011;11780;13.904;100.620;2023-03-23T07:52:35;20.20;;;17.27;;
23222;SDS011;11780;13.904;100.620;2023-03-23T07:55:07;19.10;;;17.20;;
23222;SDS011;11780;13.904;100.620;2023-03-23T07:58:00;18.58;;;16.70;;
23222;SDS011;11780;13.904;100.620;2023-03-23T08:00:30;20.27;;;17.37;;
23222;SDS011;11780;13.904;100.620;2023-03-23T08:03:20;22.13;;;18.00;;
23222;SDS011;11780;13.904;100.620;2023-03-23T08:06:09;19.52;;;17.52;;
23222;SDS011;11780;13.904;100.620;2023-03-23T08:08:57;19.05;;;17.15;;
23222;SDS011;11780;13.904;100.620;2023-03-23T08:11:48;21.52;;;18.40;;
23222;SDS011;11780;13.904;100.620;2023-03-23T08:14:50;20.92;;;17.45;;
23222;SDS011;11780;13.904;100.620;2023-03-23T08:17:36;18.85;;;16.77;;
23222;SDS011;11780;13.904;100.620;2023-03-23T08:20:40;20.95;;;17.65;;
23222;SDS011;11780;13.904;100.620;2023-03-23T08:23:30;19.73;;;17.73;;
23222;SDS011;11780;13.904;100.620;2023-03-23T08:26:20;20.05;;;18.05;;
23222;SDS011;11780;13.904;100.620;2023-03-23T08:29:10;19.42;;;17.52;;
23222;SDS011;11780;13.904;100.620;2023-03-23T08:31:58;20.77;;;18.20;;
23222;SDS011;11780;13.904;100.620;2023-03-23T08:34:54;20.10;;;17.90;;
23222;SDS011;11780;13.904;100.620;2023-03-23T08:37:43;20.45;;;18.30;;
23222;SDS011;11780;13.904;100.620;2023-03-23T08:40:35;19.98;;;17.90;;
23222;SDS011;11780;13.904;100.620;2023-03-23T08:43:30;22.17;;;18.52;;
23222;SDS011;11780;13.904;100.620;2023-03-23T08:49:12;21.50;;;18.58;;
23222;SDS011;11780;13.904;100.620;2023-03-23T08:52:01;20.35;;;18.30;;
23222;SDS011;11780;13.904;100.620;2023-03-23T08:54:50;21.13;;;18.92;;
23222;SDS011;11780;13.904;100.620;2023-03-23T08:57:46;21.67;;;19.02;;
23222;SDS011;11780;13.904;100.620;2023-03-23T09:00:26;25.50;;;18.50;;
23222;SDS011;11780;13.904;100.620;2023-03-23T09:03:18;21.13;;;18.95;;
23222;SDS011;11780;13.904;100.620;2023-03-23T09:06:07;22.13;;;19.95;;
23222;SDS011;11780;13.904;100.620;2023-03-23T09:08:44;22.33;;;19.58;;
23222;SDS011;11780;13.904;100.620;2023-03-23T09:11:14;21.37;;;19.27;;
23222;SDS011;11780;13.904;100.620;2023-03-23T09:14:03;21.83;;;19.63;;
23222;SDS011;11780;13.904;100.620;2023-03-23T09:16:35;23.27;;;20.92;;
23222;SDS011;11780;13.904;100.620;2023-03-23T09:19:05;21.67;;;19.60;;
23222;SDS011;11780;13.904;100.620;2023-03-23T09:21:56;22.97;;;20.30;;
23222;SDS011;11780;13.904;100.620;2023-03-23T09:24:26;22.70;;;20.30;;
23222;SDS011;11780;13.904;100.620;2023-03-23T09:26:57;24.30;;;21.70;;
23222;SDS011;11780;13.904;100.620;2023-03-23T09:29:28;22.27;;;19.88;;
23222;SDS011;11780;13.904;100.620;2023-03-23T09:31:58;23.50;;;21.10;;
23222;SDS011;11780;13.904;100.620;2023-03-23T09:34:29;23.55;;;21.17;;
23222;SDS011;11780;13.904;100.620;2023-03-23T09:37:14;25.25;;;21.48;;
23222;SDS011;11780;13.904;100.620;2023-03-23T09:40:05;25.08;;;22.42;;
23222;SDS011;11780;13.904;100.620;2023-03-23T09:48:28;24.10;;;21.58;;
23222;SDS011;11780;13.904;100.620;2023-03-23T09:54:26;25.58;;;23.08;;
23222;SDS011;11780;13.904;100.620;2023-03-23T09:57:05;24.65;;;22.25;;
23222;SDS011;11780;13.904;100.620;2023-03-23T10:00:47;24.23;;;21.83;;
23222;SDS011;11780;13.904;100.620;2023-03-23T10:03:16;26.08;;;22.90;;
23222;SDS011;11780;13.904;100.620;2023-03-23T10:05:55;24.70;;;22.17;;
23222;SDS011;11780;13.904;100.620;2023-03-23T10:08:52;26.75;;;23.88;;
23222;SDS011;11780;13.904;100.620;2023-03-23T10:14:25;26.13;;;23.42;;
23222;SDS011;11780;13.904;100.620;2023-03-23T10:17:18;23.42;;;21.13;;
23222;SDS011;11780;13.904;100.620;2023-03-23T10:29:28;25.02;;;22.52;;
23222;SDS011;11780;13.904;100.620;2023-03-23T10:32:21;23.70;;;20.73;;
23222;SDS011;11780;13.904;100.620;2023-03-23T10:35:28;23.52;;;21.05;;
23222;SDS011;11780;13.904;100.620;2023-03-23T10:38:12;23.58;;;21.08;;
23222;SDS011;11780;13.904;100.620;2023-03-23T10:40:56;22.38;;;20.08;;
23222;SDS011;11780;13.904;100.620;2023-03-23T10:43:48;23.40;;;21.02;;
23222;SDS011;11780;13.904;100.620;2023-03-23T10:49:19;25.27;;;22.55;;
23222;SDS011;11780;13.904;100.620;2023-03-23T10:52:02;24.90;;;21.73;;
23222;SDS011;11780;13.904;100.620;2023-03-23T10:55:09;26.20;;;22.00;;
23222;SDS011;11780;13.904;100.620;2023-03-23T10:57:58;25.05;;;22.27;;
23222;SDS011;11780;13.904;100.620;2023-03-23T11:00:33;24.95;;;21.73;;
23222;SDS011;11780;13.904;100.620;2023-03-23T11:05:56;22.80;;;20.40;;
23222;SDS011;11780;13.904;100.620;2023-03-23T11:08:30;24.45;;;21.85;;
23222;SDS011;11780;13.904;100.620;2023-03-23T11:11:08;23.23;;;20.75;;
23222;SDS011;11780;13.904;100.620;2023-03-23T11:13:41;22.80;;;20.50;;
23222;SDS011;11780;13.904;100.620;2023-03-23T11:16:32;23.88;;;21.42;;
23222;SDS011;11780;13.904;100.620;2023-03-23T11:19:11;23.73;;;21.38;;
23222;SDS011;11780;13.904;100.620;2023-03-23T11:22:19;26.02;;;21.88;;
23222;SDS011;11780;13.904;100.620;2023-03-23T11:27:44;23.45;;;21.10;;
23222;SDS011;11780;13.904;100.620;2023-03-23T11:30:22;23.13;;;20.80;;
23222;SDS011;11780;13.904;100.620;2023-03-23T11:32:59;22.55;;;20.25;;
23222;SDS011;11780;13.904;100.620;2023-03-23T11:35:32;23.17;;;20.38;;
23222;SDS011;11780;13.904;100.620;2023-03-23T11:38:02;25.60;;;20.87;;
23222;SDS011;11780;13.904;100.620;2023-03-23T11:40:54;23.13;;;20.15;;
23222;SDS011;11780;13.904;100.620;2023-03-23T11:43:26;21.95;;;19.55;;
23222;SDS011;11780;13.904;100.620;2023-03-23T11:46:11;23.13;;;19.40;;
23222;SDS011;11780;13.904;100.620;2023-03-23T11:55:26;22.48;;;19.17;;
23222;SDS011;11780;13.904;100.620;2023-03-23T11:58:04;22.15;;;19.48;;
23222;SDS011;11780;13.904;100.620;2023-03-23T12:00:45;24.52;;;19.52;;
23222;SDS011;11780;13.904;100.620;2023-03-23T12:06:19;24.08;;;19.15;;
23222;SDS011;11780;13.904;100.620;2023-03-23T12:09:38;21.00;;;18.63;;
23222;SDS011;11780;13.904;100.620;2023-03-23T12:15:50;23.65;;;19.23;;
23222;SDS011;11780;13.904;100.620;2023-03-23T12:23:24;22.00;;;19.15;;
23222;SDS011;11780;13.904;100.620;2023-03-23T12:26:41;23.02;;;19.58;;
23222;SDS011;11780;13.904;100.620;2023-03-23T12:35:25;21.02;;;18.55;;
23222;SDS011;11780;13.904;100.620;2023-03-23T12:41:14;22.98;;;19.85;;
23222;SDS011;11780;13.904;100.620;2023-03-23T12:43:52;23.77;;;19.77;;
23222;SDS011;11780;13.904;100.620;2023-03-23T12:46:35;24.42;;;20.17;;
23222;SDS011;11780;13.904;100.620;2023-03-23T12:49:17;25.08;;;18.90;;
23222;SDS011;11780;13.904;100.620;2023-03-23T12:52:18;24.33;;;19.08;;
23222;SDS011;11780;13.904;100.620;2023-03-23T12:58:11;24.52;;;18.23;;
23222;SDS011;11780;13.904;100.620;2023-03-23T13:03:58;23.20;;;18.65;;
23222;SDS011;11780;13.904;100.620;2023-03-23T13:06:44;19.98;;;18.05;;
23222;SDS011;11780;13.904;100.620;2023-03-23T13:09:46;23.70;;;16.83;;
23222;SDS011;11780;13.904;100.620;2023-03-23T13:12:18;19.92;;;17.15;;
23222;SDS011;11780;13.904;100.620;2023-03-23T13:17:56;20.15;;;17.30;;
23222;SDS011;11780;13.904;100.620;2023-03-23T13:20:50;20.00;;;16.33;;
23222;SDS011;11780;13.904;100.620;2023-03-23T13:23:42;22.75;;;17.25;;
23222;SDS011;11780;13.904;100.620;2023-03-23T13:26:23;19.70;;;17.60;;
23222;SDS011;11780;13.904;100.620;2023-03-23T13:29:01;22.55;;;17.23;;
23222;SDS011;11780;13.904;100.620;2023-03-23T13:31:47;21.13;;;16.80;;
23222;SDS011;11780;13.904;100.620;2023-03-23T13:34:22;19.40;;;16.50;;
23222;SDS011;11780;13.904;100.620;2023-03-23T13:39:36;17.27;;;15.48;;
23222;SDS011;11780;13.904;100.620;2023-03-23T13:42:19;18.65;;;15.18;;
23222;SDS011;11780;13.904;100.620;2023-03-23T13:55:40;20.73;;;14.88;;
23222;SDS011;11780;13.904;100.620;2023-03-23T13:58:21;18.27;;;14.25;;
23222;SDS011;11780;13.904;100.620;2023-03-23T14:01:10;19.48;;;14.73;;
23222;SDS011;11780;13.904;100.620;2023-03-23T14:03:47;19.63;;;15.07;;
23222;SDS011;11780;13.904;100.620;2023-03-23T14:06:22;16.70;;;14.60;;
23222;SDS011;11780;13.904;100.620;2023-03-23T14:12:14;20.35;;;15.52;;
23222;SDS011;11780;13.904;100.620;2023-03-23T14:15:21;21.38;;;14.55;;
23222;SDS011;11780;13.904;100.620;2023-03-23T14:18:01;19.33;;;14.35;;
23222;SDS011;11780;13.904;100.620;2023-03-23T14:20:36;19.73;;;14.48;;
23222;SDS011;11780;13.904;100.620;2023-03-23T14:23:14;18.92;;;14.02;;
23222;SDS011;11780;13.904;100.620;2023-03-23T14:26:15;18.85;;;13.73;;
23222;SDS011;11780;13.904;100.620;2023-03-23T14:28:50;17.10;;;14.10;;
23222;SDS011;11780;13.904;100.620;2023-03-23T14:31:24;19.20;;;14.02;;
23222;SDS011;11780;13.904;100.620;2023-03-23T14:34:22;17.10;;;13.48;;
23222;SDS011;11780;13.904;100.620;2023-03-23T14:37:16;15.63;;;13.90;;
23222;SDS011;11780;13.904;100.620;2023-03-23T14:40:05;18.65;;;14.23;;
23222;SDS011;11780;13.904;100.620;2023-03-23T14:42:41;16.55;;;13.45;;
23222;SDS011;11780;13.904;100.620;2023-03-23T14:45:14;25.30;;;13.57;;
23222;SDS011;11780;13.904;100.620;2023-03-23T14:47:47;16.27;;;12.20;;
23222;SDS011;11780;13.904;100.620;2023-03-23T14:50:48;19.17;;;12.90;;
23222;SDS011;11780;13.904;100.620;2023-03-23T14:53:41;16.65;;;13.32;;
23222;SDS011;11780;13.904;100.620;2023-03-23T14:56:14;17.67;;;12.18;;
23222;SDS011;11780;13.904;100.620;2023-03-23T14:58:46;18.00;;;11.90;;
23222;SDS011;11780;13.904;100.620;2023-03-23T15:01:19;15.25;;;12.38;;
23222;SDS011;11780;13.904;100.620;2023-03-23T15:04:12;14.93;;;11.95;;
23222;SDS011;11780;13.904;100.620;2023-03-23T15:07:08;17.50;;;12.27;;
23222;SDS011;11780;13.904;100.620;2023-03-23T15:09:40;17.33;;;11.43;;
23222;SDS011;11780;13.904;100.620;2023-03-23T15:12:19;16.48;;;12.18;;
23222;SDS011;11780;13.904;100.620;2023-03-23T15:14:57;14.02;;;11.85;;
23222;SDS011;11780;13.904;100.620;2023-03-23T15:17:32;13.43;;;10.60;;
23222;SDS011;11780;13.904;100.620;2023-03-23T15:20:32;13.27;;;10.57;;
23222;SDS011;11780;13.904;100.620;2023-03-23T15:23:31;15.05;;;11.43;;
23222;SDS011;11780;13.904;100.620;2023-03-23T15:26:24;16.85;;;11.75;;
23222;SDS011;11780;13.904;100.620;2023-03-23T15:31:53;15.70;;;11.88;;
23222;SDS011;11780;13.904;100.620;2023-03-23T15:34:31;16.45;;;11.80;;
23222;SDS011;11780;13.904;100.620;2023-03-23T15:37:29;16.90;;;11.75;;
23222;SDS011;11780;13.904;100.620;2023-03-23T15:40:21;14.68;;;12.18;;
23222;SDS011;11780;13.904;100.620;2023-03-23T15:51:35;13.20;;;11.38;;
23222;SDS011;11780;13.904;100.620;2023-03-23T15:54:21;17.30;;;12.05;;
23222;SDS011;11780;13.904;100.620;2023-03-23T15:57:11;12.30;;;11.02;;
23222;SDS011;11780;13.904;100.620;2023-03-23T15:59:41;12.57;;;10.13;;
23222;SDS011;11780;13.904;100.620;2023-03-23T16:02:16;13.45;;;10.85;;
23222;SDS011;11780;13.904;100.620;2023-03-23T16:05:10;16.20;;;11.70;;
23222;SDS011;11780;13.904;100.620;2023-03-23T16:07:41;12.10;;;10.50;;
23222;SDS011;11780;13.904;100.620;2023-03-23T16:10:19;11.88;;;10.52;;
23222;SDS011;11780;13.904;100.620;2023-03-23T16:12:50;12.20;;;10.30;;
23222;SDS011;11780;13.904;100.620;2023-03-23T16:15:21;13.50;;;10.33;;
23222;SDS011;11780;13.904;100.620;2023-03-23T16:17:51;13.27;;;11.20;;
23222;SDS011;11780;13.904;100.620;2023-03-23T16:20:22;14.60;;;10.17;;
23222;SDS011;11780;13.904;100.620;2023-03-23T16:22:53;14.32;;;11.35;;
23222;SDS011;11780;13.904;100.620;2023-03-23T16:25:24;14.48;;;10.88;;
23222;SDS011;11780;13.904;100.620;2023-03-23T16:28:13;14.13;;;11.63;;
23222;SDS011;11780;13.904;100.620;2023-03-23T16:30:44;12.23;;;11.02;;
23222;SDS011;11780;13.904;100.620;2023-03-23T16:33:15;16.75;;;11.20;;
23222;SDS011;11780;13.904;100.620;2023-03-23T16:35:45;12.63;;;10.90;;
23222;SDS011;11780;13.904;100.620;2023-03-23T16:38:16;13.10;;;10.93;;
23222;SDS011;11780;13.904;100.620;2023-03-23T16:40:47;13.43;;;9.85;;
23222;SDS011;11780;13.904;100.620;2023-03-23T16:43:18;15.20;;;11.65;;
23222;SDS011;11780;13.904;100.620;2023-03-23T16:45:49;17.60;;;10.48;;
23222;SDS011;11780;13.904;100.620;2023-03-23T16:48:24;13.93;;;10.30;;
23222;SDS011;11780;13.904;100.620;2023-03-23T16:51:10;13.77;;;10.73;;
23222;SDS011;11780;13.904;100.620;2023-03-23T16:53:41;13.33;;;10.43;;
23222;SDS011;11780;13.904;100.620;2023-03-23T16:56:29;12.85;;;9.98;;
23222;SDS011;11780;13.904;100.620;2023-03-23T16:59:03;12.93;;;9.93;;
23222;SDS011;11780;13.904;100.620;2023-03-23T17:01:33;14.25;;;10.30;;
23222;SDS011;11780;13.904;100.620;2023-03-23T17:04:04;11.47;;;9.93;;
23222;SDS011;11780;13.904;100.620;2023-03-23T17:06:53;16.45;;;11.07;;
23222;SDS011;11780;13.904;100.620;2023-03-23T17:09:43;16.73;;;10.75;;
23222;SDS011;11780;13.904;100.620;2023-03-23T17:12:17;13.20;;;10.73;;
23222;SDS011;11780;13.904;100.620;2023-03-23T17:14:48;12.02;;;10.68;;
23222;SDS011;11780;13.904;100.620;2023-03-23T17:17:18;11.52;;;10.40;;
23222;SDS011;11780;13.904;100.620;2023-03-23T17:19:49;13.48;;;10.48;;
23222;SDS011;11780;13.904;100.620;2023-03-23T17:22:20;15.48;;;10.93;;
23222;SDS011;11780;13.904;100.620;2023-03-23T17:24:51;11.52;;;10.32;;
23222;SDS011;11780;13.904;100.620;2023-03-23T17:27:25;14.73;;;10.85;;
23222;SDS011;11780;13.904;100.620;2023-03-23T17:29:56;12.82;;;10.88;;
23222;SDS011;11780;13.904;100.620;2023-03-23T17:32:26;13.17;;;11.13;;
23222;SDS011;11780;13.904;100.620;2023-03-23T17:35:00;14.88;;;10.80;;
23222;SDS011;11780;13.904;100.620;2023-03-23T17:37:31;15.38;;;10.80;;